Time;durP1;ratioP1;P1;durP2;ratioP2;P2;SDS_P1;SDS_P2;PMS_P1;PMS_P2;Temp;Humidity;BMP_temperature;BMP_pressure;BME280_temperature;BME280_humidity;BME280_pressure;Samples;Min_cycle;Max_cycle;Signal;HPM_P1;HPM_P2
2021/11/14 00:00:01;;;;;;;;;;;;;;;;;;5033129;28;19957;-63
2021/11/14 00:02:28;;;;;;;;;;;;;;;;;;5022633;28;20266;-64
2021/11/14 00:04:55;;;;;;;;;;;;;;;;;;5020383;28;20035;-64
2021/11/14 00:07:22;;;;;;;;;;;;;;;;;;5021659;28;19937;-61
2021/11/14 00:09:49;;;;;;;;;;;;;;;;;;5015764;28;19926;-60
2021/11/14 00:12:16;;;;;;;;;;;;;;;;;;5018830;28;19929;-62
2021/11/14 00:14:42;;;;;;;;;;;;;;;;;;5017272;28;19930;-62
2021/11/14 00:17:10;;;;;;;;;;;;;;;;;;5024064;28;19929;-62
2021/11/14 00:19:36;;;;;;;;;;;;;;;;;;5018323;28;19925;-61
2021/11/14 00:22:03;;;;;;;;;;;;;;;;;;5016671;28;20024;-62
2021/11/14 00:24:32;;;;;;;;;;;;;;;;;;5020760;28;19965;-63
2021/11/14 00:26:59;;;;;;;;;;;;;;;;;;5013835;28;19982;-60
2021/11/14 00:29:26;;;;;;;;;;;;;;;;;;5018235;28;20236;-63
2021/11/14 00:31:53;;;;;;;;;;;;;;;;;;5019869;28;20024;-62
2021/11/14 00:34:20;;;;;;;;;;;;;;;;;;5013850;28;19933;-62
2021/11/14 00:36:48;;;;;;;;;;;;;;;;;;5018896;28;19948;-62
2021/11/14 00:39:16;;;;;;;;;;;;;;;;;;5015985;28;19947;-63
2021/11/14 00:41:43;;;;;;;;;;;;;;;;;;5024219;28;19996;-63
2021/11/14 00:44:10;;;;;;;;;;;;;;;;;;5020161;28;19925;-63
2021/11/14 00:46:38;;;;;;;;;;;;;;;;;;5023743;28;20009;-60
2021/11/14 00:49:05;;;;;;;;;;;;;;;;;;5024558;28;19951;-62
2021/11/14 00:51:32;;;;;;;;;;;;;;;;;;5018438;28;19961;-64
2021/11/14 00:53:59;;;;;;;;;;;;;;;;;;5022045;28;20440;-62
2021/11/14 00:56:26;;;;;;;;;;;;;;;;;;5019913;28;19935;-62
2021/11/14 00:58:53;;;;;;;;;;;;;;;;;;5023324;28;20539;-63
2021/11/14 01:01:20;;;;;;;;;;;;;;;;;;5021937;28;19985;-63
2021/11/14 01:03:47;;;;;;;;;;;;;;;;;;5024059;28;19926;-64
2021/11/14 01:06:14;;;;;;;;;;;;;;;;;;5017010;28;19926;-64
2021/11/14 01:08:41;;;;;;;;;;;;;;;;;;5021070;28;19926;-62
2021/11/14 01:11:08;;;;;;;;;;;;;;;;;;5020796;28;19925;-62
2021/11/14 01:13:35;;;;;;;;;;;;;;;;;;5020015;28;19940;-64
2021/11/14 01:16:03;;;;;;;;;;;;;;;;;;5021946;28;19936;-62
2021/11/14 01:18:29;;;;;;;;;;;;;;;;;;5017312;28;19948;-64
2021/11/14 01:20:56;;;;;;;;;;;;;;;;;;5020617;28;19997;-61
2021/11/14 01:23:23;;;;;;;;;;;;;;;;;;5019711;28;19929;-63
2021/11/14 01:25:50;;;;;;;;;;;;;;;;;;5020717;28;20020;-63
2021/11/14 01:28:17;;;;;;;;;;;;;;;;;;5021965;28;19925;-64
2021/11/14 01:30:44;;;;;;;;;;;;;;;;;;5021866;28;19965;-63
2021/11/14 01:33:11;;;;;;;;;;;;;;;;;;5019000;28;20020;-61
2021/11/14 01:35:38;;;;;;;;;;;;;;;;;;5041523;28;20016;-62
2021/11/14 01:38:05;;;;;;;;;;;;;;;;;;5014580;28;19997;-62
2021/11/14 01:40:32;;;;;;;;;;;;;;;;;;5029574;28;19926;-61
2021/11/14 01:42:59;;;;;;;;;;;;;;;;;;5021021;28;19926;-61
2021/11/14 01:45:26;;;;;;;;;;;;;;;;;;5015828;28;20001;-62
2021/11/14 01:47:53;;;;;;;;;;;;;;;;;;5023009;28;19926;-61
2021/11/14 01:50:20;;;;;;;;;;;;;;;;;;5037523;28;20012;-63
2021/11/14 01:52:47;;;;;;;;;;;;;;;;;;5014322;28;20029;-64
2021/11/14 01:55:14;;;;;;;;;;;;;;;;;;5022602;28;19947;-59
2021/11/14 01:57:41;;;;;;;;;;;;;;;;;;5015828;28;19932;-62
2021/11/14 02:00:08;;;;;;;;;;;;;;;;;;5013847;28;19993;-60
2021/11/14 02:02:35;;;;;;;;;;;;;;;;;;5019180;28;20002;-61
2021/11/14 02:05:02;;;;;;;;;;;;;;;;;;5018199;28;19926;-61
2021/11/14 02:07:29;;;;;;;;;;;;;;;;;;5017129;28;19992;-63
2021/11/14 02:09:56;;;;;;;;;;;;;;;;;;5020654;28;19947;-62
2021/11/14 02:12:23;;;;;;;;;;;;;;;;;;5016841;28;19996;-63
2021/11/14 02:14:50;;;;;;;;;;;;;;;;;;5028442;28;19991;-60
2021/11/14 02:17:17;;;;;;;;;;;;;;;;;;5021229;28;19990;-61
2021/11/14 02:19:44;;;;;;;;;;;;;;;;;;5016666;28;19930;-61
2021/11/14 02:22:11;;;;;;;;;;;;;;;;;;5015533;28;19925;-63
2021/11/14 02:24:38;;;;;;;;;;;;;;;;;;5021088;28;20028;-61
2021/11/14 02:27:05;;;;;;;;;;;;;;;;;;5019535;28;20270;-63
2021/11/14 02:29:32;;;;;;;;;;;;;;;;;;5017598;28;19953;-64
2021/11/14 02:31:59;;;;;;;;;;;;;;;;;;5019743;28;19926;-62
2021/11/14 02:34:26;;;;;;;;;;;;;;;;;;5022596;28;19953;-63
2021/11/14 02:36:53;;;;;;;;;;;;;;;;;;5019910;28;19933;-64
2021/11/14 02:39:20;;;;;;;;;;;;;;;;;;5024005;28;19960;-64
2021/11/14 02:41:47;;;;;;;;;;;;;;;;;;5019387;28;19949;-62
2021/11/14 02:44:14;;;;;;;;;;;;;;;;;;5021380;28;20401;-63
2021/11/14 02:46:41;;;;;;;;;;;;;;;;;;5017781;28;19996;-63
2021/11/14 02:49:08;;;;;;;;;;;;;;;;;;5017872;28;19993;-63
2021/11/14 02:51:35;;;;;;;;;;;;;;;;;;5041233;28;19925;-64
2021/11/14 02:54:02;;;;;;;;;;;;;;;;;;5015709;28;19925;-62
2021/11/14 02:56:28;;;;;;;;;;;;;;;;;;5018218;28;20315;-62
2021/11/14 02:58:56;;;;;;;;;;;;;;;;;;5031842;28;19972;-63
2021/11/14 03:01:23;;;;;;;;;;;;;;;;;;5012538;28;19937;-64
2021/11/14 03:03:50;;;;;;;;;;;;;;;;;;5036997;28;19928;-62
2021/11/14 03:06:17;;;;;;;;;;;;;;;;;;5017034;28;19937;-64
2021/11/14 03:08:44;;;;;;;;;;;;;;;;;;5025058;28;19936;-63
2021/11/14 03:11:11;;;;;;;;;;;;;;;;;;5029834;28;19926;-64
2021/11/14 03:13:37;;;;;;;;;;;;;;;;;;5016651;28;19969;-61
2021/11/14 03:16:04;;;;;;;;;;;;;;;;;;5009902;28;20516;-63
2021/11/14 03:18:31;;;;;;;;;;;;;;;;;;5012942;28;19964;-63
2021/11/14 03:20:58;;;;;;;;;;;;;;;;;;5025160;28;19981;-62
2021/11/14 03:23:25;;;;;;;;;;;;;;;;;;5021528;28;20000;-64
2021/11/14 03:25:52;;;;;;;;;;;;;;;;;;5020778;28;19956;-61
2021/11/14 03:28:19;;;;;;;;;;;;;;;;;;5015314;28;19933;-62
2021/11/14 03:30:46;;;;;;;;;;;;;;;;;;5011788;28;19930;-61
2021/11/14 03:33:13;;;;;;;;;;;;;;;;;;5014407;28;19992;-64
2021/11/14 03:35:40;;;;;;;;;;;;;;;;;;5038926;28;19930;-63
2021/11/14 03:38:07;;;;;;;;;;;;;;;;;;5016476;28;19925;-62
2021/11/14 03:40:34;;;;;;;;;;;;;;;;;;5017297;28;19940;-61
2021/11/14 03:43:01;;;;;;;;;;;;;;;;;;5029523;28;20006;-64
2021/11/14 03:45:28;;;;;;;;;;;;;;;;;;5017729;28;20183;-61
2021/11/14 03:47:55;;;;;;;;;;;;;;;;;;5022748;28;19932;-64
2021/11/14 03:50:22;;;;;;;;;;;;;;;;;;5020482;28;19926;-64
2021/11/14 03:52:49;;;;;;;;;;;;;;;;;;5017324;28;19965;-63
2021/11/14 03:55:16;;;;;;;;;;;;;;;;;;5019044;28;20020;-62
2021/11/14 03:57:43;;;;;;;;;;;;;;;;;;5044017;22;20023;-67
2021/11/14 04:00:10;;;;;;;;;;;;;;;;;;5064893;28;19924;-67
2021/11/14 04:02:37;;;;;;;;;;;;;;;;;;5070461;28;20327;-67
2021/11/14 04:05:04;;;;;;;;;;;;;;;;;;5074891;28;20430;-67
2021/11/14 04:07:30;;;;;;;;;;;;;;;;;;5063227;28;19935;-67
2021/11/14 04:09:57;;;;;;;;;;;;;;;;;;5066287;28;19932;-67
2021/11/14 04:12:24;;;;;;;;;;;;;;;;;;5065050;28;19925;-67
2021/11/14 04:14:51;;;;;;;;;;;;;;;;;;5064437;28;19935;-67
2021/11/14 04:17:18;;;;;;;;;;;;;;;;;;5063835;28;19932;-67
2021/11/14 04:19:45;;;;;;;;;;;;;;;;;;5061195;28;19925;-67
2021/11/14 04:22:12;;;;;;;;;;;;;;;;;;5065294;28;20395;-67
2021/11/14 04:24:39;;;;;;;;;;;;;;;;;;5060727;28;19932;-68
2021/11/14 04:27:06;;;;;;;;;;;;;;;;;;5068468;28;19928;-66
2021/11/14 04:29:33;;;;;;;;;;;;;;;;;;5063986;28;19932;-67
2021/11/14 04:32:00;;;;;;;;;;;;;;;;;;5067665;28;19930;-67
2021/11/14 04:34:27;;;;;;;;;;;;;;;;;;5061687;28;19924;-67
2021/11/14 04:36:53;;;;;;;;;;;;;;;;;;5061352;28;20300;-66
2021/11/14 04:39:20;;;;;;;;;;;;;;;;;;5065627;28;20024;-66
2021/11/14 04:41:47;;;;;;;;;;;;;;;;;;5067715;28;19935;-66
2021/11/14 04:44:14;;;;;;;;;;;;;;;;;;5066678;28;19924;-66
2021/11/14 04:46:41;;;;;;;;;;;;;;;;;;5058965;28;20015;-66
2021/11/14 04:49:08;;;;;;;;;;;;;;;;;;5069215;28;20272;-67
2021/11/14 04:51:35;;;;;;;;;;;;;;;;;;5064367;28;19943;-67
2021/11/14 04:54:02;;;;;;;;;;;;;;;;;;5064674;28;19925;-67
2021/11/14 04:56:29;;;;;;;;;;;;;;;;;;5063018;28;19925;-67
2021/11/14 04:58:56;;;;;;;;;;;;;;;;;;5061639;28;19924;-67
2021/11/14 05:01:23;;;;;;;;;;;;;;;;;;5063557;28;19932;-67
2021/11/14 05:03:50;;;;;;;;;;;;;;;;;;5062859;28;19947;-67
2021/11/14 05:06:17;;;;;;;;;;;;;;;;;;5064669;28;19924;-67
2021/11/14 05:08:44;;;;;;;;;;;;;;;;;;5063170;28;20285;-67
2021/11/14 05:11:10;;;;;;;;;;;;;;;;;;5067842;28;19932;-67
2021/11/14 05:13:37;;;;;;;;;;;;;;;;;;5064456;28;19928;-67
2021/11/14 05:16:04;;;;;;;;;;;;;;;;;;5063903;28;19925;-66
2021/11/14 05:18:31;;;;;;;;;;;;;;;;;;5063362;28;20119;-67
2021/11/14 05:20:58;;;;;;;;;;;;;;;;;;5060910;28;20412;-66
2021/11/14 05:23:25;;;;;;;;;;;;;;;;;;5062731;28;19925;-67
2021/11/14 05:25:52;;;;;;;;;;;;;;;;;;5065932;28;19972;-67
2021/11/14 05:28:19;;;;;;;;;;;;;;;;;;5070867;28;19932;-69
2021/11/14 05:30:47;;;;;;;;;;;;;;;;;;5068110;28;19924;-66
2021/11/14 05:33:14;;;;;;;;;;;;;;;;;;5068977;28;19924;-66
2021/11/14 05:35:41;;;;;;;;;;;;;;;;;;5064630;28;20000;-67
2021/11/14 05:38:08;;;;;;;;;;;;;;;;;;5067926;28;19928;-66
2021/11/14 05:40:34;;;;;;;;;;;;;;;;;;5065349;28;19925;-66
2021/11/14 05:43:01;;;;;;;;;;;;;;;;;;5065282;28;19925;-66
2021/11/14 05:45:28;;;;;;;;;;;;;;;;;;5063449;28;19928;-65
2021/11/14 05:47:56;;;;;;;;;;;;;;;;;;5063438;28;19930;-66
2021/11/14 05:50:23;;;;;;;;;;;;;;;;;;5063945;28;19929;-66
2021/11/14 05:52:50;;;;;;;;;;;;;;;;;;5064251;28;19931;-65
2021/11/14 05:55:17;;;;;;;;;;;;;;;;;;5061464;28;20019;-66
2021/11/14 05:57:49;;;;;;;;;;;;;;;;;;5060406;28;20288;-67
2021/11/14 06:00:20;;;;;;;;;;;;;;;;;;5065673;28;19924;-66
2021/11/14 06:02:49;;;;;;;;;;;;;;;;;;5060091;28;19924;-67
2021/11/14 06:05:17;;;;;;;;;;;;;;;;;;5060473;28;19925;-67
2021/11/14 06:07:44;;;;;;;;;;;;;;;;;;5063166;28;19932;-66
2021/11/14 06:10:11;;;;;;;;;;;;;;;;;;5063861;28;19932;-67
2021/11/14 06:12:38;;;;;;;;;;;;;;;;;;5057941;28;20522;-66
2021/11/14 06:15:05;;;;;;;;;;;;;;;;;;5062125;28;20019;-68
2021/11/14 06:17:32;;;;;;;;;;;;;;;;;;5066195;28;20019;-67
2021/11/14 06:19:59;;;;;;;;;;;;;;;;;;5060119;28;19932;-67
2021/11/14 06:22:26;;;;;;;;;;;;;;;;;;5057758;28;19943;-67
2021/11/14 06:24:53;;;;;;;;;;;;;;;;;;5063390;28;19925;-67
2021/11/14 06:27:20;;;;;;;;;;;;;;;;;;5067199;28;19924;-66
2021/11/14 06:29:47;;;;;;;;;;;;;;;;;;5064106;28;19932;-67
2021/11/14 06:32:15;;;;;;;;;;;;;;;;;;5065390;28;19925;-67
2021/11/14 06:34:42;;;;;;;;;;;;;;;;;;5068765;28;19978;-66
2021/11/14 06:37:09;;;;;;;;;;;;;;;;;;5065769;28;19929;-66
2021/11/14 06:39:36;;;;;;;;;;;;;;;;;;5058144;28;19925;-66
2021/11/14 06:42:03;;;;;;;;;;;;;;;;;;5060194;28;19925;-66
2021/11/14 06:44:30;;;;;;;;;;;;;;;;;;5060275;28;19925;-66
2021/11/14 06:46:57;;;;;;;;;;;;;;;;;;5063633;28;19925;-66
2021/11/14 06:49:24;;;;;;;;;;;;;;;;;;5062462;28;20295;-66
2021/11/14 06:51:50;;;;;;;;;;;;;;;;;;5059858;28;19939;-66
2021/11/14 06:54:17;;;;;;;;;;;;;;;;;;5061105;28;19932;-66
2021/11/14 06:56:44;;;;;;;;;;;;;;;;;;5057982;28;19924;-66
2021/11/14 06:59:14;;;;;;;;;;;;;;;;;;5060334;28;19932;-66
2021/11/14 07:01:41;;;;;;;;;;;;;;;;;;5061322;28;20361;-66
2021/11/14 07:04:08;;;;;;;;;;;;;;;;;;5058827;28;19932;-66
2021/11/14 07:06:36;;;;;;;;;;;;;;;;;;5067574;28;20328;-66
2021/11/14 07:09:03;;;;;;;;;;;;;;;;;;5060652;28;20007;-66
2021/11/14 07:11:30;;;;;;;;;;;;;;;;;;5061410;28;19925;-67
2021/11/14 07:13:59;;;;;;;;;;;;;;;;;;5061585;28;20274;-66
2021/11/14 07:16:26;;;;;;;;;;;;;;;;;;5057096;28;19925;-66
2021/11/14 07:18:53;;;;;;;;;;;;;;;;;;5059023;28;19932;-66
2021/11/14 07:21:20;;;;;;;;;;;;;;;;;;5061692;28;19924;-66
2021/11/14 07:23:47;;;;;;;;;;;;;;;;;;5066829;28;19939;-66
2021/11/14 07:26:14;;;;;;;;;;;;;;;;;;5065262;28;20080;-66
2021/11/14 07:28:41;;;;;;;;;;;;;;;;;;5066536;28;19931;-66
2021/11/14 07:31:08;;;;;;;;;;;;;;;;;;5057535;28;19931;-65
2021/11/14 07:33:35;;;;;;;;;;;;;;;;;;5065326;28;19931;-66
2021/11/14 07:36:02;;;;;;;;;;;;;;;;;;5066437;28;20396;-66
2021/11/14 07:38:29;;;;;;;;;;;;;;;;;;5061337;28;19933;-66
2021/11/14 07:40:56;;;;;;;;;;;;;;;;;;5063773;28;19925;-66
2021/11/14 07:43:23;;;;;;;;;;;;;;;;;;5067323;28;19925;-65
2021/11/14 07:45:49;;;;;;;;;;;;;;;;;;5067371;28;20277;-65
2021/11/14 07:48:16;;;;;;;;;;;;;;;;;;5063720;28;19933;-65
2021/11/14 07:50:43;;;;;;;;;;;;;;;;;;5063410;28;19925;-66
2021/11/14 07:53:10;;;;;;;;;;;;;;;;;;5064577;28;19936;-65
2021/11/14 07:55:37;;;;;;;;;;;;;;;;;;5065452;28;20289;-66
2021/11/14 07:58:06;;;;;;;;;;;;;;;;;;5063383;28;19924;-66
2021/11/14 08:00:32;;;;;;;;;;;;;;;;;;5063672;28;19936;-65
2021/11/14 08:02:59;;;;;;;;;;;;;;;;;;5062883;28;19928;-66
2021/11/14 08:05:28;;;;;;;;;;;;;;;;;;5065902;28;19925;-66
2021/11/14 08:07:55;;;;;;;;;;;;;;;;;;5061092;28;19995;-66
2021/11/14 08:10:22;;;;;;;;;;;;;;;;;;5067879;28;19928;-66
2021/11/14 08:12:49;;;;;;;;;;;;;;;;;;5063582;28;19933;-66
2021/11/14 08:15:16;;;;;;;;;;;;;;;;;;5067652;28;20380;-66
2021/11/14 08:17:43;;;;;;;;;;;;;;;;;;5068236;28;19924;-67
2021/11/14 08:20:10;;;;;;;;;;;;;;;;;;5059604;28;19928;-68
2021/11/14 08:22:37;;;;;;;;;;;;;;;;;;5061015;28;19925;-66
2021/11/14 08:25:04;;;;;;;;;;;;;;;;;;5065814;28;19931;-66
2021/11/14 08:27:31;;;;;;;;;;;;;;;;;;5064005;28;19928;-66
2021/11/14 08:29:58;;;;;;;;;;;;;;;;;;5059751;28;19947;-66
2021/11/14 08:32:25;;;;;;;;;;;;;;;;;;5064695;28;19931;-67
2021/11/14 08:34:52;;;;;;;;;;;;;;;;;;5060970;28;19928;-67
2021/11/14 08:37:19;;;;;;;;;;;;;;;;;;5059703;28;20396;-66
2021/11/14 08:39:48;;;;;;;;;;;;;;;;;;5065823;28;19925;-66
2021/11/14 08:42:15;;;;;;;;;;;;;;;;;;5065726;28;20450;-67
2021/11/14 08:44:42;;;;;;;;;;;;;;;;;;5061621;28;19929;-67
2021/11/14 08:47:09;;;;;;;;;;;;;;;;;;5062318;28;19929;-67
2021/11/14 08:49:36;;;;;;;;;;;;;;;;;;5061888;28;20015;-67
2021/11/14 08:52:03;;;;;;;;;;;;;;;;;;5063994;28;20288;-67
2021/11/14 08:54:33;;;;;;;;;;;;;;;;;;5062323;28;20133;-67
2021/11/14 08:57:00;;;;;;;;;;;;;;;;;;5060352;28;19932;-66
2021/11/14 08:59:28;;;;;;;;;;;;;;;;;;5060820;28;19936;-67
2021/11/14 09:01:55;;;;;;;;;;;;;;;;;;5061173;28;19960;-67
2021/11/14 09:04:22;;;;;;;;;;;;;;;;;;5058703;28;19932;-66
2021/11/14 09:06:49;;;;;;;;;;;;;;;;;;5059586;28;19925;-67
2021/11/14 09:09:16;;;;;;;;;;;;;;;;;;5058297;28;19924;-67
2021/11/14 09:11:43;;;;;;;;;;;;;;;;;;5068206;28;19924;-67
2021/11/14 09:14:09;;;;;;;;;;;;;;;;;;5064059;28;20390;-67
2021/11/14 09:16:36;;;;;;;;;;;;;;;;;;5063977;28;19924;-67
2021/11/14 09:19:03;;;;;;;;;;;;;;;;;;5066120;28;19929;-67
2021/11/14 09:21:30;;;;;;;;;;;;;;;;;;5060820;28;19925;-67
2021/11/14 09:23:57;;;;;;;;;;;;;;;;;;5065718;28;20384;-67
2021/11/14 09:26:24;;;;;;;;;;;;;;;;;;5067556;28;20430;-67
2021/11/14 09:28:51;;;;;;;;;;;;;;;;;;5061180;28;19931;-67
2021/11/14 09:31:18;;;;;;;;;;;;;;;;;;5058685;28;20041;-67
2021/11/14 09:33:45;;;;;;;;;;;;;;;;;;5059508;28;19931;-66
2021/11/14 09:36:12;;;;;;;;;;;;;;;;;;5061885;28;19924;-66
2021/11/14 09:38:39;;;;;;;;;;;;;;;;;;5063972;28;19940;-67
2021/11/14 09:41:06;;;;;;;;;;;;;;;;;;5062121;28;19930;-67
2021/11/14 09:43:33;;;;;;;;;;;;;;;;;;5066626;28;19928;-67
2021/11/14 09:46:00;;;;;;;;;;;;;;;;;;5060919;28;20384;-67
2021/11/14 09:48:27;;;;;;;;;;;;;;;;;;5057350;28;20384;-67
2021/11/14 09:50:54;;;;;;;;;;;;;;;;;;5058163;28;19925;-67
2021/11/14 09:53:21;;;;;;;;;;;;;;;;;;5061531;28;19925;-67
2021/11/14 09:55:48;;;;;;;;;;;;;;;;;;5054652;28;19931;-66
2021/11/14 09:58:15;;;;;;;;;;;;;;;;;;5071336;22;19928;-60
2021/11/14 10:00:42;;;;;;;;;;;;;;;;;;5084100;28;19924;-59
2021/11/14 10:03:09;;;;;;;;;;;;;;;;;;5085157;28;19962;-60
2021/11/14 10:05:36;;;;;;;;;;;;;;;;;;5087902;28;19928;-61
2021/11/14 10:08:03;;;;;;;;;;;;;;;;;;5084060;28;20336;-60
2021/11/14 10:10:30;;;;;;;;;;;;;;;;;;5067120;28;19944;-60
2021/11/14 10:12:57;;;;;;;;;;;;;;;;;;5065700;28;19955;-61
2021/11/14 10:15:24;;;;;;;;;;;;;;;;;;5067019;28;20007;-61
2021/11/14 10:17:51;;;;;;;;;;;;;;;;;;5066971;28;19925;-60
2021/11/14 10:20:21;;;;;;;;;;;;;;;;;;5068506;28;20368;-58
2021/11/14 10:22:48;;;;;;;;;;;;;;;;;;5067945;28;20345;-60
2021/11/14 10:25:15;;;;;;;;;;;;;;;;;;5068805;28;19971;-59
2021/11/14 10:27:42;;;;;;;;;;;;;;;;;;5065001;28;20116;-60
2021/11/14 10:30:09;;;;;;;;;;;;;;;;;;5065780;28;19931;-63
2021/11/14 10:32:36;;;;;;;;;;;;;;;;;;5061840;28;19924;-63
2021/11/14 10:35:03;;;;;;;;;;;;;;;;;;5063971;28;19925;-63
2021/11/14 10:37:30;;;;;;;;;;;;;;;;;;5066862;28;19925;-62
2021/11/14 10:39:57;;;;;;;;;;;;;;;;;;5066020;28;19932;-62
2021/11/14 10:42:24;;;;;;;;;;;;;;;;;;5064381;28;19932;-60
2021/11/14 10:44:50;;;;;;;;;;;;;;;;;;5067102;28;19925;-61
2021/11/14 10:47:21;;;;;;;;;;;;;;;;;;5065750;28;19925;-59
2021/11/14 10:49:48;;;;;;;;;;;;;;;;;;5065250;28;20364;-62
2021/11/14 10:52:15;;;;;;;;;;;;;;;;;;5064052;28;19924;-58
2021/11/14 10:54:42;;;;;;;;;;;;;;;;;;5065273;28;19964;-60
2021/11/14 10:57:09;;;;;;;;;;;;;;;;;;5066258;28;19936;-60
2021/11/14 10:59:36;;;;;;;;;;;;;;;;;;5070719;28;19932;-58
2021/11/14 11:02:04;;;;;;;;;;;;;;;;;;5067350;28;19931;-61
2021/11/14 11:04:31;;;;;;;;;;;;;;;;;;5072366;28;19924;-60
2021/11/14 11:07:01;;;;;;;;;;;;;;;;;;5070594;28;19928;-62
2021/11/14 11:09:28;;;;;;;;;;;;;;;;;;5067182;28;19925;-59
2021/11/14 11:11:56;;;;;;;;;;;;;;;;;;5069677;28;20007;-62
2021/11/14 11:14:23;;;;;;;;;;;;;;;;;;5067946;28;20443;-61
2021/11/14 11:16:50;;;;;;;;;;;;;;;;;;5070217;28;19924;-61
2021/11/14 11:19:17;;;;;;;;;;;;;;;;;;5066905;28;19925;-61
2021/11/14 11:21:44;;;;;;;;;;;;;;;;;;5070407;28;19931;-62
2021/11/14 11:24:10;;;;;;;;;;;;;;;;;;5070992;28;19925;-61
2021/11/14 11:26:37;;;;;;;;;;;;;;;;;;5067661;28;19947;-61
2021/11/14 11:29:04;;;;;;;;;;;;;;;;;;5070168;28;20287;-61
2021/11/14 11:31:34;;;;;;;;;;;;;;;;;;5066387;28;20291;-64
2021/11/14 11:34:01;;;;;;;;;;;;;;;;;;5068085;28;20002;-59
2021/11/14 11:36:28;;;;;;;;;;;;;;;;;;5070418;28;19932;-61
2021/11/14 11:38:55;;;;;;;;;;;;;;;;;;5070658;28;19978;-59
2021/11/14 11:41:23;;;;;;;;;;;;;;;;;;5065510;28;19925;-62
2021/11/14 11:43:53;;;;;;;;;;;;;;;;;;5066221;28;20280;-61
2021/11/14 11:46:20;;;;;;;;;;;;;;;;;;5067308;28;19924;-60
2021/11/14 11:48:47;;;;;;;;;;;;;;;;;;5071637;28;19931;-61
2021/11/14 11:51:14;;;;;;;;;;;;;;;;;;5069076;28;19925;-66
2021/11/14 11:53:41;;;;;;;;;;;;;;;;;;5069025;28;19924;-61
2021/11/14 11:56:10;;;;;;;;;;;;;;;;;;5069698;28;19930;-61
2021/11/14 11:58:37;;;;;;;;;;;;;;;;;;5065442;28;19928;-61
2021/11/14 12:01:04;;;;;;;;;;;;;;;;;;5065983;28;20002;-62
2021/11/14 12:03:31;;;;;;;;;;;;;;;;;;5069203;28;20305;-62
2021/11/14 12:05:58;;;;;;;;;;;;;;;;;;5067362;28;20056;-62
2021/11/14 12:08:25;;;;;;;;;;;;;;;;;;5064966;28;20423;-62
2021/11/14 12:10:52;;;;;;;;;;;;;;;;;;5068185;28;20035;-63
2021/11/14 12:13:19;;;;;;;;;;;;;;;;;;5067598;28;20014;-61
2021/11/14 12:15:46;;;;;;;;;;;;;;;;;;5063809;28;19954;-62
2021/11/14 12:18:13;;;;;;;;;;;;;;;;;;5067738;28;19932;-63
2021/11/14 12:20:42;;;;;;;;;;;;;;;;;;5067605;28;19978;-63
2021/11/14 12:23:09;;;;;;;;;;;;;;;;;;5067882;28;19924;-64
2021/11/14 12:25:37;;;;;;;;;;;;;;;;;;5066810;28;19932;-62
2021/11/14 12:28:04;;;;;;;;;;;;;;;;;;5068011;28;19931;-61
2021/11/14 12:30:31;;;;;;;;;;;;;;;;;;5067691;28;19986;-62
2021/11/14 12:32:58;;;;;;;;;;;;;;;;;;5070736;28;20028;-62
2021/11/14 12:35:26;;;;;;;;;;;;;;;;;;5066623;28;19928;-59
2021/11/14 12:37:53;;;;;;;;;;;;;;;;;;5067495;28;19962;-61
2021/11/14 12:40:22;;;;;;;;;;;;;;;;;;5066658;28;19946;-60
2021/11/14 12:42:49;;;;;;;;;;;;;;;;;;5069791;28;19924;-61
2021/11/14 12:45:16;;;;;;;;;;;;;;;;;;5069086;28;20024;-62
2021/11/14 12:47:43;;;;;;;;;;;;;;;;;;5066488;28;20315;-60
2021/11/14 12:50:11;;;;;;;;;;;;;;;;;;5067720;28;19931;-60
2021/11/14 12:52:38;;;;;;;;;;;;;;;;;;5062877;28;20009;-65
2021/11/14 12:55:05;;;;;;;;;;;;;;;;;;5064590;28;19932;-62
2021/11/14 12:57:32;;;;;;;;;;;;;;;;;;5069049;28;19931;-63
2021/11/14 12:59:59;;;;;;;;;;;;;;;;;;5067198;28;20405;-61
2021/11/14 13:02:27;;;;;;;;;;;;;;;;;;5066648;28;20277;-61
2021/11/14 13:04:54;;;;;;;;;;;;;;;;;;5068375;28;19936;-61
2021/11/14 13:07:21;;;;;;;;;;;;;;;;;;5070899;28;19925;-61
2021/11/14 13:09:48;;;;;;;;;;;;;;;;;;5067450;28;20176;-61
2021/11/14 13:12:18;;;;;;;;;;;;;;;;;;5068426;28;19931;-61
2021/11/14 13:14:45;;;;;;;;;;;;;;;;;;5066975;28;20285;-60
2021/11/14 13:17:12;;;;;;;;;;;;;;;;;;5066137;28;19933;-60
2021/11/14 13:19:39;;;;;;;;;;;;;;;;;;5065015;28;19924;-62
2021/11/14 13:22:06;;;;;;;;;;;;;;;;;;5069804;28;19930;-61
2021/11/14 13:24:33;;;;;;;;;;;;;;;;;;5068510;28;20013;-61
2021/11/14 13:27:03;;;;;;;;;;;;;;;;;;5066283;28;19928;-62
2021/11/14 13:29:30;;;;;;;;;;;;;;;;;;5069015;28;20061;-62
2021/11/14 13:31:56;;;;;;;;;;;;;;;;;;5066939;28;20006;-61
2021/11/14 13:34:23;;;;;;;;;;;;;;;;;;5066218;28;19935;-63
2021/11/14 13:36:50;;;;;;;;;;;;;;;;;;5063593;28;20074;-62
2021/11/14 13:39:17;;;;;;;;;;;;;;;;;;5068414;28;19932;-64
2021/11/14 13:41:44;;;;;;;;;;;;;;;;;;5065575;28;20156;-62
2021/11/14 13:44:11;;;;;;;;;;;;;;;;;;5064793;28;20204;-60
2021/11/14 13:46:38;;;;;;;;;;;;;;;;;;5061167;28;20447;-62
2021/11/14 13:49:05;;;;;;;;;;;;;;;;;;5061694;28;19925;-62
2021/11/14 13:51:32;;;;;;;;;;;;;;;;;;5069566;28;20411;-61
2021/11/14 13:53:59;;;;;;;;;;;;;;;;;;5064528;28;20311;-61
2021/11/14 13:56:26;;;;;;;;;;;;;;;;;;5062297;28;20387;-62
2021/11/14 13:58:53;;;;;;;;;;;;;;;;;;5067264;28;19924;-62
2021/11/14 14:01:20;;;;;;;;;;;;;;;;;;5064339;28;19929;-63
2021/11/14 14:03:48;;;;;;;;;;;;;;;;;;5066171;28;19972;-60
2021/11/14 14:06:15;;;;;;;;;;;;;;;;;;5066508;28;19924;-61
2021/11/14 14:08:42;;;;;;;;;;;;;;;;;;5061394;28;19925;-60
2021/11/14 14:11:09;;;;;;;;;;;;;;;;;;5067514;28;20412;-62
2021/11/14 14:13:36;;;;;;;;;;;;;;;;;;5064659;28;19933;-59
2021/11/14 14:16:03;;;;;;;;;;;;;;;;;;5066311;28;19930;-62
2021/11/14 14:18:30;;;;;;;;;;;;;;;;;;5065105;28;19968;-58
2021/11/14 14:20:59;;;;;;;;;;;;;;;;;;5062971;28;19994;-59
2021/11/14 14:23:26;;;;;;;;;;;;;;;;;;5060487;28;19924;-59
2021/11/14 14:25:53;;;;;;;;;;;;;;;;;;5063265;28;19924;-64
2021/11/14 14:28:20;;;;;;;;;;;;;;;;;;5062770;28;19928;-61
2021/11/14 14:30:47;;;;;;;;;;;;;;;;;;5062489;28;19986;-63
2021/11/14 14:33:14;;;;;;;;;;;;;;;;;;5063791;28;19924;-61
2021/11/14 14:35:41;;;;;;;;;;;;;;;;;;5060509;28;20025;-63
2021/11/14 14:38:08;;;;;;;;;;;;;;;;;;5063967;28;19932;-61
2021/11/14 14:40:35;;;;;;;;;;;;;;;;;;5066673;28;20364;-61
2021/11/14 14:43:02;;;;;;;;;;;;;;;;;;5064258;28;19924;-61
2021/11/14 14:45:32;;;;;;;;;;;;;;;;;;5062119;28;19935;-60
2021/11/14 14:47:59;;;;;;;;;;;;;;;;;;5063739;28;19925;-62
2021/11/14 14:50:26;;;;;;;;;;;;;;;;;;5065024;28;20315;-61
2021/11/14 14:52:53;;;;;;;;;;;;;;;;;;5066258;28;19928;-62
2021/11/14 14:55:20;;;;;;;;;;;;;;;;;;5060474;28;19929;-61
2021/11/14 14:57:47;;;;;;;;;;;;;;;;;;5064715;28;19975;-61
2021/11/14 15:00:14;;;;;;;;;;;;;;;;;;5063873;28;20435;-62
2021/11/14 15:02:41;;;;;;;;;;;;;;;;;;5061389;28;19925;-61
2021/11/14 15:05:08;;;;;;;;;;;;;;;;;;5065439;28;20311;-63
2021/11/14 15:07:35;;;;;;;;;;;;;;;;;;5068951;28;19924;-61
2021/11/14 15:10:03;;;;;;;;;;;;;;;;;;5066104;28;19935;-64
2021/11/14 15:12:31;;;;;;;;;;;;;;;;;;5063123;28;19925;-60
2021/11/14 15:14:58;;;;;;;;;;;;;;;;;;5066621;28;19931;-58
2021/11/14 15:17:25;;;;;;;;;;;;;;;;;;5067390;28;19928;-62
2021/11/14 15:19:52;;;;;;;;;;;;;;;;;;5062009;28;20015;-62
2021/11/14 15:22:19;;;;;;;;;;;;;;;;;;5064807;28;19993;-62
2021/11/14 15:24:46;;;;;;;;;;;;;;;;;;5064800;28;19928;-61
2021/11/14 15:27:12;;;;;;;;;;;;;;;;;;5068136;28;19983;-62
2021/11/14 15:29:39;;;;;;;;;;;;;;;;;;5061370;28;19952;-59
2021/11/14 15:32:06;;;;;;;;;;;;;;;;;;5059573;28;19933;-63
2021/11/14 15:34:33;;;;;;;;;;;;;;;;;;5065209;28;19939;-61
2021/11/14 15:37:00;;;;;;;;;;;;;;;;;;5068003;28;19924;-63
2021/11/14 15:39:27;;;;;;;;;;;;;;;;;;5066730;28;19935;-61
2021/11/14 15:41:54;;;;;;;;;;;;;;;;;;5068318;28;20296;-60
2021/11/14 15:44:21;;;;;;;;;;;;;;;;;;5064509;28;20043;-61
2021/11/14 15:46:48;;;;;;;;;;;;;;;;;;5067378;28;19946;-57
2021/11/14 15:49:15;;;;;;;;;;;;;;;;;;5069811;28;19924;-58
2021/11/14 15:51:42;;;;;;;;;;;;;;;;;;5067255;28;19925;-63
2021/11/14 15:54:09;;;;;;;;;;;;;;;;;;5070009;28;19931;-60
2021/11/14 15:56:36;;;;;;;;;;;;;;;;;;5069391;28;19971;-61
2021/11/14 15:59:03;;;;;;;;;;;;;;;;;;5070125;28;19932;-61
2021/11/14 16:01:30;;;;;;;;;;;;;;;;;;5067956;28;19924;-63
2021/11/14 16:03:58;;;;;;;;;;;;;;;;;;5065928;28;19924;-61
2021/11/14 16:06:24;;;;;;;;;;;;;;;;;;5069191;28;19975;-60
2021/11/14 16:08:51;;;;;;;;;;;;;;;;;;5068592;28;19931;-59
2021/11/14 16:11:18;;;;;;;;;;;;;;;;;;5068938;28;19931;-61
2021/11/14 16:13:45;;;;;;;;;;;;;;;;;;5069050;28;19928;-61
2021/11/14 16:16:12;;;;;;;;;;;;;;;;;;5069314;28;19968;-63
2021/11/14 16:18:39;;;;;;;;;;;;;;;;;;5066748;28;19931;-61
2021/11/14 16:21:06;;;;;;;;;;;;;;;;;;5057439;28;19939;-63
2021/11/14 16:23:34;;;;;;;;;;;;;;;;;;5070485;28;20447;-60
2021/11/14 16:26:01;;;;;;;;;;;;;;;;;;5066850;28;19983;-60
2021/11/14 16:28:28;;;;;;;;;;;;;;;;;;5068936;28;19925;-62
2021/11/14 16:30:55;;;;;;;;;;;;;;;;;;5070633;28;20027;-60
2021/11/14 16:33:22;;;;;;;;;;;;;;;;;;5067034;28;20307;-59
2021/11/14 16:35:49;;;;;;;;;;;;;;;;;;5070315;28;19931;-62
2021/11/14 16:38:18;;;;;;;;;;;;;;;;;;5066558;28;19958;-59
2021/11/14 16:40:45;;;;;;;;;;;;;;;;;;5062366;28;19932;-62
2021/11/14 16:43:12;;;;;;;;;;;;;;;;;;5066558;28;19934;-60